createdAt,value
2018-10-04T00:00:40.891Z,54.3
2018-10-04T00:01:42.454Z,54.3
2018-10-04T00:02:43.520Z,54.3
2018-10-04T00:03:45.074Z,54.3
2018-10-04T00:04:46.646Z,54.7
2018-10-04T00:05:48.197Z,54.3
2018-10-04T00:06:49.755Z,54.3
2018-10-04T00:07:50.981Z,54.3
2018-10-04T00:08:52.364Z,53.3
2018-10-04T00:09:53.950Z,53.8
2018-10-04T00:10:55.514Z,53.3
2018-10-04T00:11:57.061Z,53.8
2018-10-04T00:12:58.608Z,52.8
2018-10-04T00:14:00.000Z,53.3
2018-10-04T00:15:01.417Z,52.8
2018-10-04T00:16:02.854Z,53.8
2018-10-04T00:17:04.427Z,53.3
2018-10-04T00:18:05.995Z,53.3
2018-10-04T00:19:07.562Z,51.8
2018-10-04T00:20:08.967Z,52.3
2018-10-04T00:21:10.556Z,51.8
2018-10-04T00:22:12.107Z,51.8
2018-10-04T00:23:13.675Z,52.8
2018-10-04T00:24:15.247Z,52.3
2018-10-04T00:25:16.808Z,52.8
2018-10-04T00:26:18.356Z,51.8
2018-10-04T00:27:19.777Z,51.3
2018-10-04T00:28:21.178Z,51.3
2018-10-04T00:29:22.761Z,52.3
2018-10-04T00:30:24.166Z,51.3
2018-10-04T00:31:25.739Z,51.3
2018-10-04T00:32:27.304Z,51.3
2018-10-04T00:33:28.856Z,51.3
2018-10-04T00:34:30.435Z,51.3
2018-10-04T00:35:31.982Z,50.8
2018-10-04T00:36:33.401Z,51.3
2018-10-04T00:37:34.966Z,51.3
2018-10-04T00:38:36.540Z,50.8
2018-10-04T00:39:37.946Z,51.3
2018-10-04T00:40:39.499Z,50.3
2018-10-04T00:41:41.053Z,49.9
2018-10-04T00:42:42.462Z,50.8
2018-10-04T00:43:43.850Z,49.9
2018-10-04T00:44:45.436Z,49.9
2018-10-04T00:45:47.296Z,49.9
2018-10-04T00:46:48.916Z,50.3
2018-10-04T00:47:50.480Z,50.8
2018-10-04T00:48:51.889Z,49.9
2018-10-04T00:49:53.466Z,50.3
2018-10-04T00:50:55.120Z,49.9
2018-10-04T00:51:56.688Z,48.9
2018-10-04T00:52:58.265Z,49.4
2018-10-04T00:53:59.847Z,48.9
2018-10-04T00:55:01.236Z,49.4
2018-10-04T00:56:02.798Z,49.4
2018-10-04T00:57:04.363Z,48.9
2018-10-04T00:58:05.806Z,48.9
2018-10-04T00:59:07.364Z,49.4
2018-10-04T01:00:08.782Z,49.4
2018-10-04T01:01:10.350Z,48.9
2018-10-04T01:02:11.899Z,49.4
2018-10-04T01:03:13.293Z,49.4
2018-10-04T01:04:14.870Z,48.4
2018-10-04T01:05:17.080Z,49.4
2018-10-04T01:06:18.872Z,48.9
2018-10-04T01:07:20.430Z,48.9
2018-10-04T01:08:21.828Z,48.9
2018-10-04T01:09:23.398Z,48.4
2018-10-04T01:10:24.947Z,48.9
2018-10-04T01:11:26.502Z,47.9
2018-10-04T01:12:28.057Z,48.9
2018-10-04T01:13:29.616Z,48.4
2018-10-04T01:14:31.007Z,49.4
2018-10-04T01:15:32.567Z,48.9
2018-10-04T01:16:33.970Z,48.4
2018-10-04T01:17:35.542Z,47.9
2018-10-04T01:18:36.970Z,47.9
2018-10-04T01:19:38.536Z,46.9
2018-10-04T01:20:40.109Z,46.9
2018-10-04T01:21:41.670Z,46.9
2018-10-04T01:22:43.229Z,45.5
2018-10-04T01:23:44.807Z,45.9
2018-10-04T01:24:46.385Z,45.5
2018-10-04T01:25:47.769Z,45.5
2018-10-04T01:26:49.359Z,44.5
2018-10-04T01:27:50.739Z,45
2018-10-04T01:28:52.335Z,44.5
2018-10-04T01:29:53.908Z,45
2018-10-04T01:30:55.485Z,43.5
2018-10-04T01:31:56.888Z,43.5
2018-10-04T01:32:58.455Z,44
2018-10-04T01:34:00.012Z,43.5
2018-10-04T01:35:01.450Z,42.5
2018-10-04T01:36:03.030Z,43
2018-10-04T01:37:04.612Z,43
2018-10-04T01:38:06.012Z,43.5
2018-10-04T01:39:07.594Z,43.5
2018-10-04T01:40:09.148Z,44.5
2018-10-04T01:41:10.563Z,45.5
2018-10-04T01:42:12.123Z,45.5
2018-10-04T01:43:13.690Z,46.9
2018-10-04T01:44:15.278Z,47.9
2018-10-04T01:45:16.836Z,49.9
2018-10-04T01:46:17.893Z,50.3
2018-10-04T01:47:19.446Z,50.8
2018-10-04T01:48:21.008Z,51.8
2018-10-04T01:49:22.413Z,51.8
2018-10-04T01:50:23.825Z,53.3
2018-10-04T01:51:25.213Z,53.3
2018-10-04T01:52:26.439Z,53.8
2018-10-04T01:53:28.009Z,55.2
2018-10-04T01:54:29.596Z,54.7
2018-10-04T01:55:30.964Z,55.2
2018-10-04T01:56:32.543Z,55.2
2018-10-04T01:57:33.927Z,55.7
2018-10-04T01:58:35.485Z,55.2
2018-10-04T01:59:37.039Z,55.2
2018-10-04T02:00:38.595Z,54.7
2018-10-04T02:01:40.227Z,55.2
2018-10-04T02:02:41.778Z,55.7
2018-10-04T02:03:43.347Z,54.7
2018-10-04T02:04:44.917Z,55.2
2018-10-04T02:05:46.327Z,54.7
2018-10-04T02:06:47.728Z,53.8
2018-10-04T02:07:49.112Z,53.3
2018-10-04T02:08:50.507Z,53.8
2018-10-04T02:09:51.901Z,53.8
2018-10-04T02:10:53.484Z,53.3
2018-10-04T02:11:55.231Z,52.8
2018-10-04T02:12:56.768Z,52.8
2018-10-04T02:13:58.340Z,53.3
2018-10-04T02:14:59.746Z,52.3
2018-10-04T02:16:01.310Z,52.3
2018-10-04T02:17:02.879Z,52.3
2018-10-04T02:18:04.452Z,52.3
2018-10-04T02:19:05.828Z,52.3
2018-10-04T02:20:07.405Z,52.3
2018-10-04T02:21:08.981Z,52.3
2018-10-04T02:22:10.559Z,51.3
2018-10-04T02:23:11.958Z,51.8
2018-10-04T02:24:13.345Z,51.8
2018-10-04T02:25:14.737Z,50.8
2018-10-04T02:26:16.305Z,51.8
2018-10-04T02:27:17.873Z,50.3
2018-10-04T02:28:19.261Z,50.3
2018-10-04T02:29:20.817Z,50.3
2018-10-04T02:30:22.388Z,49.4
2018-10-04T02:31:23.947Z,48.4
2018-10-04T02:32:25.511Z,48.4
2018-10-04T02:33:27.063Z,47.9
2018-10-04T02:34:28.587Z,45.9
2018-10-04T02:35:30.157Z,45.9
2018-10-04T02:36:31.737Z,44.5
2018-10-04T02:37:33.298Z,44
2018-10-04T02:38:34.802Z,44
2018-10-04T02:39:36.350Z,44
2018-10-04T02:40:37.939Z,45.5
2018-10-04T02:41:39.325Z,45.5
2018-10-04T02:42:41.660Z,46.9
2018-10-04T02:43:43.453Z,47.4
2018-10-04T02:44:45.040Z,47.9
2018-10-04T02:45:46.602Z,46.9
2018-10-04T02:46:48.263Z,47.9
2018-10-04T02:47:49.983Z,47.9
2018-10-04T02:48:52.109Z,47.4
2018-10-04T02:49:53.434Z,47.4
2018-10-04T02:50:55.010Z,46.4
2018-10-04T02:51:56.563Z,46.4
2018-10-04T02:52:58.140Z,45.9
2018-10-04T02:53:59.736Z,45.5
2018-10-04T02:55:01.133Z,43.5
2018-10-04T02:56:02.728Z,44
2018-10-04T02:57:04.138Z,44
2018-10-04T02:58:05.544Z,42.5
2018-10-04T02:59:07.305Z,43.5
2018-10-04T03:00:08.898Z,43.5
2018-10-04T03:01:10.468Z,43.5
2018-10-04T03:02:12.093Z,45
2018-10-04T03:03:13.707Z,45.5
2018-10-04T03:04:15.090Z,46.4
2018-10-04T03:05:16.654Z,47.9
2018-10-04T03:06:18.253Z,46.4
2018-10-04T03:07:19.665Z,46.9
2018-10-04T03:08:21.235Z,47.4
2018-10-04T03:09:22.798Z,47.4
2018-10-04T03:10:24.380Z,47.4
2018-10-04T03:11:25.988Z,47.4
2018-10-04T03:12:27.563Z,46.4
2018-10-04T03:13:29.140Z,46.4
2018-10-04T03:14:30.715Z,45.9
2018-10-04T03:15:32.127Z,45
2018-10-04T03:16:33.527Z,44.5
2018-10-04T03:17:35.085Z,44
2018-10-04T03:18:36.674Z,42.5
2018-10-04T03:19:38.231Z,43
2018-10-04T03:20:39.696Z,42.5
2018-10-04T03:21:41.257Z,42.5
2018-10-04T03:22:42.651Z,41.5
2018-10-04T03:23:44.250Z,42.5
2018-10-04T03:24:45.646Z,41.5
2018-10-04T03:25:47.215Z,41.5
2018-10-04T03:26:48.783Z,41.5
2018-10-04T03:27:50.379Z,41.5
2018-10-04T03:28:51.754Z,41.5
2018-10-04T03:29:53.297Z,41.5
2018-10-04T03:30:54.958Z,40.6
2018-10-04T03:31:56.549Z,42
2018-10-04T03:32:57.798Z,39.6
2018-10-04T03:33:59.398Z,40.1
2018-10-04T03:35:00.966Z,40.6
2018-10-04T03:36:02.558Z,41.5
2018-10-04T03:37:03.968Z,43.5
2018-10-04T03:38:05.519Z,44.5
2018-10-04T03:39:07.080Z,45.9
2018-10-04T03:40:08.637Z,51.3
2018-10-04T03:41:10.045Z,55.2
2018-10-04T03:42:11.609Z,57.7
2018-10-04T03:43:13.154Z,58.7
2018-10-04T03:44:15.227Z,58.7
2018-10-04T03:45:16.626Z,58.7
2018-10-04T03:46:18.211Z,59.1
2018-10-04T03:47:19.771Z,59.1
2018-10-04T03:48:21.014Z,58.2
2018-10-04T03:49:22.426Z,57.7
2018-10-04T03:50:23.985Z,56.7
2018-10-04T03:51:25.541Z,55.7
2018-10-04T03:52:27.121Z,54.7
2018-10-04T03:53:28.679Z,53.8
2018-10-04T03:54:30.236Z,54.7
2018-10-04T03:55:31.800Z,54.7
2018-10-04T03:56:33.359Z,53.3
2018-10-04T03:57:34.924Z,53.3
2018-10-04T03:58:36.484Z,52.8
2018-10-04T03:59:38.106Z,52.8
2018-10-04T04:00:39.677Z,50.8
2018-10-04T04:01:41.328Z,49.9
2018-10-04T04:02:42.892Z,46.9
2018-10-04T04:03:44.124Z,43
2018-10-04T04:04:45.730Z,42
2018-10-04T04:05:47.299Z,42.5
2018-10-04T04:06:48.880Z,44
2018-10-04T04:07:50.415Z,46.4
2018-10-04T04:08:51.797Z,48.4
2018-10-04T04:09:53.364Z,47.9
2018-10-04T04:10:54.765Z,48.4
2018-10-04T04:11:56.837Z,47.9
2018-10-04T04:12:58.698Z,46.4
2018-10-04T04:14:00.274Z,46.9
2018-10-04T04:15:01.519Z,45
2018-10-04T04:16:02.942Z,43
2018-10-04T04:17:04.509Z,41.1
2018-10-04T04:18:06.081Z,42
2018-10-04T04:19:07.641Z,42.5
2018-10-04T04:20:09.206Z,44.5
2018-10-04T04:21:10.618Z,45.5
2018-10-04T04:22:12.138Z,46.4
2018-10-04T04:23:13.747Z,47.4
2018-10-04T04:24:15.325Z,46.9
2018-10-04T04:25:17.013Z,48.4
2018-10-04T04:26:18.861Z,48.9
2018-10-04T04:27:20.427Z,48.4
2018-10-04T04:28:21.837Z,48.9
2018-10-04T04:29:23.245Z,48.9
2018-10-04T04:30:24.837Z,47.9
2018-10-04T04:31:26.236Z,47.9
2018-10-04T04:32:27.797Z,47.4
2018-10-04T04:33:29.403Z,47.4
2018-10-04T04:34:30.795Z,46.9
2018-10-04T04:35:32.187Z,45.9
2018-10-04T04:36:33.750Z,45
2018-10-04T04:37:35.312Z,44
2018-10-04T04:38:36.876Z,43.5
2018-10-04T04:39:38.472Z,43.5
2018-10-04T04:40:40.236Z,43
2018-10-04T04:41:41.853Z,44.5
2018-10-04T04:42:43.416Z,45.9
2018-10-04T04:43:45.145Z,45.9
2018-10-04T04:44:46.850Z,46.9
2018-10-04T04:45:48.459Z,47.9
2018-10-04T04:46:50.930Z,48.4
2018-10-04T04:47:52.307Z,48.4
2018-10-04T04:48:53.912Z,48.9
2018-10-04T04:49:55.468Z,49.4
2018-10-04T04:50:57.063Z,47.9
2018-10-04T04:51:58.474Z,48.4
2018-10-04T04:53:00.232Z,47.9
2018-10-04T04:54:01.621Z,47.4
2018-10-04T04:55:03.100Z,46.9
2018-10-04T04:56:04.681Z,46.9
2018-10-04T04:57:06.267Z,45.9
2018-10-04T04:58:07.503Z,45.5
2018-10-04T04:59:09.076Z,45
2018-10-04T05:00:10.632Z,43.5
2018-10-04T05:01:12.181Z,44.5
2018-10-04T05:02:13.765Z,43.5
2018-10-04T05:03:15.319Z,44
2018-10-04T05:04:16.728Z,45
2018-10-04T05:05:18.142Z,44.5
2018-10-04T05:06:20.266Z,46.4
2018-10-04T05:07:21.967Z,46.4
2018-10-04T05:08:23.379Z,46.4
2018-10-04T05:09:24.926Z,47.4
2018-10-04T05:10:26.476Z,47.4
2018-10-04T05:11:28.081Z,47.4
2018-10-04T05:12:29.668Z,47.4
2018-10-04T05:13:31.239Z,47.4
2018-10-04T05:14:32.480Z,46.9
2018-10-04T05:15:33.860Z,47.4
2018-10-04T05:16:35.407Z,47.4
2018-10-04T05:17:36.805Z,45.5
2018-10-04T05:18:38.514Z,45.9
2018-10-04T05:19:40.077Z,45.9
2018-10-04T05:20:41.713Z,45
2018-10-04T05:21:43.121Z,45
2018-10-04T05:22:44.521Z,45
2018-10-04T05:23:46.114Z,44.5
2018-10-04T05:24:47.604Z,44
2018-10-04T05:25:48.866Z,44.5
2018-10-04T05:26:50.451Z,43.5
2018-10-04T05:27:52.611Z,44
2018-10-04T05:28:54.432Z,43.5
2018-10-04T05:29:55.658Z,43
2018-10-04T05:30:56.745Z,42.5
2018-10-04T05:31:58.034Z,42.5
2018-10-04T05:32:59.449Z,43.5
2018-10-04T05:34:00.853Z,47.9
2018-10-04T05:35:02.260Z,52.8
2018-10-04T05:36:03.836Z,57.7
2018-10-04T05:37:05.974Z,57.7
2018-10-04T05:38:07.255Z,58.2
2018-10-04T05:39:08.818Z,58.7
2018-10-04T05:40:10.219Z,57.7
2018-10-04T05:41:11.780Z,57.7
2018-10-04T05:42:13.176Z,57.7
2018-10-04T05:43:14.728Z,57.2
2018-10-04T05:44:16.294Z,56.7
2018-10-04T05:45:18.122Z,55.7
2018-10-04T05:46:19.606Z,55.2
2018-10-04T05:47:21.005Z,54.3
2018-10-04T05:48:22.577Z,53.8
2018-10-04T05:49:23.978Z,53.8
2018-10-04T05:50:25.397Z,52.8
2018-10-04T05:51:26.980Z,52.8
2018-10-04T05:52:28.545Z,51.8
2018-10-04T05:53:30.739Z,52.3
2018-10-04T05:54:32.601Z,50.3
2018-10-04T05:55:34.164Z,46.4
2018-10-04T05:56:35.727Z,43.5
2018-10-04T05:57:37.296Z,42.5
2018-10-04T05:58:38.888Z,42
2018-10-04T05:59:40.447Z,43
2018-10-04T06:00:42.036Z,44.5
2018-10-04T06:01:43.622Z,45.9
2018-10-04T06:02:45.028Z,46.4
2018-10-04T06:03:46.598Z,46.9
2018-10-04T06:04:48.638Z,46.9
2018-10-04T06:05:49.886Z,45
2018-10-04T06:06:51.473Z,43.5
2018-10-04T06:07:53.047Z,42
2018-10-04T06:08:54.610Z,41.5
2018-10-04T06:09:56.023Z,42
2018-10-04T06:10:57.595Z,42.5
2018-10-04T06:11:59.176Z,45
2018-10-04T06:13:00.760Z,45.9
2018-10-04T06:14:02.324Z,46.9
2018-10-04T06:15:04.632Z,47.9
2018-10-04T06:16:06.300Z,46.4
2018-10-04T06:17:07.522Z,45
2018-10-04T06:18:09.093Z,45
2018-10-04T06:19:10.677Z,43
2018-10-04T06:20:12.261Z,41.1
2018-10-04T06:21:13.819Z,41.1
2018-10-04T06:22:15.387Z,42.5
2018-10-04T06:23:17.073Z,44
2018-10-04T06:24:18.797Z,45.5
2018-10-04T06:25:20.071Z,46.4
2018-10-04T06:26:21.651Z,47.4
2018-10-04T06:27:23.224Z,47.9
2018-10-04T06:28:24.612Z,47.9
2018-10-04T06:29:25.862Z,47.9
2018-10-04T06:30:27.438Z,47.4
2018-10-04T06:31:28.838Z,46.4
2018-10-04T06:32:30.240Z,45.9
2018-10-04T06:33:31.864Z,45
2018-10-04T06:34:33.442Z,44.5
2018-10-04T06:35:34.824Z,42.5
2018-10-04T06:36:36.464Z,42.5
2018-10-04T06:37:38.038Z,42
2018-10-04T06:38:39.604Z,43
2018-10-04T06:39:41.176Z,43.5
2018-10-04T06:40:42.454Z,45
2018-10-04T06:41:44.006Z,45.5
2018-10-04T06:42:45.607Z,46.9
2018-10-04T06:43:46.988Z,47.4
2018-10-04T06:44:48.567Z,47.4
2018-10-04T06:45:50.153Z,47.9
2018-10-04T06:46:51.558Z,47.9
2018-10-04T06:47:53.118Z,47.4
2018-10-04T06:48:54.680Z,47.4
2018-10-04T06:49:56.234Z,46.9
2018-10-04T06:50:57.805Z,47.4
2018-10-04T06:51:59.228Z,46.9
2018-10-04T06:53:00.798Z,46.4
2018-10-04T06:54:02.008Z,45.9
2018-10-04T06:55:03.598Z,45.5
2018-10-04T06:56:05.163Z,45.5
2018-10-04T06:57:06.758Z,45.5
2018-10-04T06:58:08.219Z,45
2018-10-04T06:59:09.834Z,45
2018-10-04T07:00:11.395Z,45
2018-10-04T07:01:12.971Z,44
2018-10-04T07:02:14.531Z,45
2018-10-04T07:03:15.936Z,45
2018-10-04T07:04:17.499Z,44.5
2018-10-04T07:05:19.057Z,43.5
2018-10-04T07:06:20.287Z,43.5
2018-10-04T07:07:21.853Z,43.5
2018-10-04T07:08:23.429Z,45
2018-10-04T07:09:24.831Z,45.9
2018-10-04T07:10:26.093Z,46.9
2018-10-04T07:11:27.516Z,46.9
2018-10-04T07:12:29.127Z,48.4
2018-10-04T07:13:30.686Z,51.8
2018-10-04T07:14:32.259Z,55.2
2018-10-04T07:15:33.663Z,56.2
2018-10-04T07:16:35.079Z,57.2
2018-10-04T07:17:36.468Z,56.7
2018-10-04T07:18:38.031Z,56.7
2018-10-04T07:19:39.438Z,57.2
2018-10-04T07:20:41.821Z,56.7
2018-10-04T07:21:43.559Z,55.7
2018-10-04T07:22:44.986Z,55.2
2018-10-04T07:23:46.564Z,54.7
2018-10-04T07:24:48.166Z,54.7
2018-10-04T07:25:49.739Z,54.3
2018-10-04T07:26:51.146Z,53.8
2018-10-04T07:27:52.566Z,52.8
2018-10-04T07:28:53.990Z,52.8
2018-10-04T07:29:55.570Z,53.3
2018-10-04T07:30:56.971Z,53.3
2018-10-04T07:31:58.367Z,51.8
2018-10-04T07:32:59.955Z,52.3
2018-10-04T07:34:01.395Z,52.3
2018-10-04T07:35:03.803Z,51.3
2018-10-04T07:36:05.564Z,51.3
2018-10-04T07:37:07.091Z,49.4
2018-10-04T07:38:08.544Z,49.9
2018-10-04T07:39:09.947Z,48.9
2018-10-04T07:40:11.367Z,48.4
2018-10-04T07:41:12.937Z,47.9
2018-10-04T07:42:15.341Z,47.9
2018-10-04T07:43:17.083Z,47.9
2018-10-04T07:44:18.464Z,47.4
2018-10-04T07:45:20.022Z,47.4
2018-10-04T07:46:21.601Z,45.9
2018-10-04T07:47:23.171Z,46.4
2018-10-04T07:48:24.565Z,46.9
2018-10-04T07:49:26.153Z,47.4
2018-10-04T07:50:27.722Z,47.4
2018-10-04T07:51:29.283Z,47.4
2018-10-04T07:52:30.683Z,47.9
2018-10-04T07:53:31.758Z,47.4
2018-10-04T07:54:33.338Z,47.9
2018-10-04T07:55:34.900Z,47.4
2018-10-04T07:56:36.802Z,47.4
2018-10-04T07:57:38.512Z,47.4
2018-10-04T07:58:39.922Z,46.9
2018-10-04T07:59:41.510Z,46.9
2018-10-04T08:00:43.083Z,46.4
2018-10-04T08:01:44.666Z,45.5
2018-10-04T08:02:46.344Z,44.5
2018-10-04T08:03:47.930Z,44
2018-10-04T08:04:49.355Z,43
2018-10-04T08:05:51.706Z,43
2018-10-04T08:06:53.996Z,44
2018-10-04T08:07:55.568Z,45.5
2018-10-04T08:08:56.811Z,46.9
2018-10-04T08:09:58.388Z,47.9
2018-10-04T08:10:59.787Z,47.9
2018-10-04T08:12:01.191Z,47.9
2018-10-04T08:13:02.631Z,46.9
2018-10-04T08:14:04.201Z,47.4
2018-10-04T08:15:05.764Z,46.4
2018-10-04T08:16:07.178Z,46.9
2018-10-04T08:17:08.758Z,45.9
2018-10-04T08:18:10.371Z,45
2018-10-04T08:19:11.914Z,45.5
2018-10-04T08:20:13.339Z,45.5
2018-10-04T08:21:15.329Z,45
2018-10-04T08:22:16.906Z,44.5
2018-10-04T08:23:18.315Z,44
2018-10-04T08:24:19.754Z,44.5
2018-10-04T08:25:21.187Z,44
2018-10-04T08:26:22.764Z,42.5
2018-10-04T08:27:24.403Z,42.5
2018-10-04T08:28:25.826Z,43
2018-10-04T08:29:27.393Z,42.5
2018-10-04T08:30:28.775Z,43.5
2018-10-04T08:31:30.346Z,42.5
2018-10-04T08:32:31.924Z,42.5
2018-10-04T08:33:33.480Z,43
2018-10-04T08:34:35.091Z,42
2018-10-04T08:35:36.672Z,41.5
2018-10-04T08:36:38.268Z,41.5
2018-10-04T08:37:39.857Z,41.5
2018-10-04T08:38:41.406Z,40.6
2018-10-04T08:39:42.975Z,41.1
2018-10-04T08:40:44.556Z,40.6
2018-10-04T08:41:45.962Z,40.6
2018-10-04T08:42:47.377Z,39.6
2018-10-04T08:43:48.780Z,41.5
2018-10-04T08:44:50.369Z,40.1
2018-10-04T08:45:51.927Z,40.1
2018-10-04T08:46:53.509Z,46.4
2018-10-04T08:47:55.169Z,52.3
2018-10-04T08:48:56.566Z,55.7
2018-10-04T08:49:58.148Z,56.2
2018-10-04T08:50:59.724Z,57.2
2018-10-04T08:52:01.298Z,57.7
2018-10-04T08:53:02.699Z,57.7
2018-10-04T08:54:04.424Z,56.7
2018-10-04T08:55:06.058Z,57.7
2018-10-04T08:56:07.618Z,56.2
2018-10-04T08:57:09.011Z,57.2
2018-10-04T08:58:10.596Z,55.2
2018-10-04T08:59:12.011Z,55.7
2018-10-04T09:00:13.579Z,54.7
2018-10-04T09:01:15.129Z,54.7
2018-10-04T09:02:16.722Z,54.7
2018-10-04T09:03:18.137Z,53.8
2018-10-04T09:04:19.708Z,54.3
2018-10-04T09:05:21.254Z,54.3
2018-10-04T09:06:22.480Z,53.3
2018-10-04T09:07:24.342Z,54.3
2018-10-04T09:08:25.661Z,53.3
2018-10-04T09:09:27.235Z,53.8
2018-10-04T09:10:28.655Z,54.3
2018-10-04T09:11:30.227Z,52.3
2018-10-04T09:12:31.815Z,52.8
2018-10-04T09:13:33.399Z,53.3
2018-10-04T09:14:34.977Z,52.8
2018-10-04T09:15:36.550Z,52.8
2018-10-04T09:16:38.131Z,52.3
2018-10-04T09:17:39.692Z,52.3
2018-10-04T09:18:41.248Z,51.8
2018-10-04T09:19:42.499Z,51.3
2018-10-04T09:20:43.919Z,50.8
2018-10-04T09:21:45.487Z,49.4
2018-10-04T09:22:47.065Z,49.4
2018-10-04T09:23:48.475Z,48.9
2018-10-04T09:24:49.857Z,47.4
2018-10-04T09:25:51.419Z,46.4
2018-10-04T09:26:52.819Z,45.5
2018-10-04T09:27:54.371Z,44.5
2018-10-04T09:28:55.959Z,43
2018-10-04T09:29:57.194Z,42.5
2018-10-04T09:30:58.590Z,44
2018-10-04T09:32:00.471Z,44
2018-10-04T09:33:02.169Z,45
2018-10-04T09:34:03.733Z,45.5
2018-10-04T09:35:05.326Z,46.4
2018-10-04T09:36:06.738Z,46.4
2018-10-04T09:37:08.320Z,45.9
2018-10-04T09:38:09.904Z,46.9
2018-10-04T09:39:11.296Z,46.9
2018-10-04T09:40:12.704Z,46.9
2018-10-04T09:41:14.771Z,46.9
2018-10-04T09:42:16.348Z,46.4
2018-10-04T09:43:17.911Z,46.9
2018-10-04T09:44:19.478Z,45.9
2018-10-04T09:45:21.048Z,45.9
2018-10-04T09:46:23.111Z,46.4
2018-10-04T09:47:24.848Z,45
2018-10-04T09:48:26.653Z,45
2018-10-04T09:49:28.152Z,45
2018-10-04T09:50:29.719Z,44.5
2018-10-04T09:51:31.293Z,44
2018-10-04T09:52:32.883Z,43.5
2018-10-04T09:53:34.639Z,41.5
2018-10-04T09:54:36.318Z,41.1
2018-10-04T09:55:37.806Z,40.1
2018-10-04T09:56:39.390Z,40.6
2018-10-04T09:57:40.847Z,41.1
2018-10-04T09:58:42.407Z,42
2018-10-04T09:59:44.267Z,44
2018-10-04T10:00:46.026Z,45
2018-10-04T10:01:47.591Z,45.9
2018-10-04T10:02:49.172Z,45.9
2018-10-04T10:03:50.747Z,46.4
2018-10-04T10:04:52.294Z,45.9
2018-10-04T10:05:53.667Z,46.4
2018-10-04T10:06:55.268Z,45.5
2018-10-04T10:07:56.691Z,45.5
2018-10-04T10:08:58.265Z,44.5
2018-10-04T10:09:59.533Z,43.5
2018-10-04T10:11:01.097Z,43
2018-10-04T10:12:02.658Z,43
2018-10-04T10:13:04.215Z,42.5
2018-10-04T10:14:05.848Z,41.1
2018-10-04T10:15:07.247Z,40.6
2018-10-04T10:16:08.656Z,40.1
2018-10-04T10:17:10.058Z,39.6
2018-10-04T10:18:11.624Z,40.1
2018-10-04T10:19:13.010Z,40.1
2018-10-04T10:20:14.587Z,39.1
2018-10-04T10:21:16.194Z,40.1
2018-10-04T10:22:17.775Z,39.6
2018-10-04T10:23:19.332Z,39.1
2018-10-04T10:24:20.900Z,39.1
2018-10-04T10:25:22.477Z,39.1
2018-10-04T10:26:24.040Z,39.1
2018-10-04T10:27:26.179Z,38.6
2018-10-04T10:28:27.869Z,39.1
2018-10-04T10:29:29.448Z,38.1
2018-10-04T10:30:30.858Z,39.1
2018-10-04T10:31:32.424Z,38.1
2018-10-04T10:32:33.997Z,38.6
2018-10-04T10:33:35.395Z,38.1
2018-10-04T10:34:36.976Z,38.1
2018-10-04T10:35:38.543Z,40.1
2018-10-04T10:36:40.119Z,48.4
2018-10-04T10:37:41.707Z,53.8
2018-10-04T10:38:43.297Z,56.7
2018-10-04T10:39:44.786Z,58.2
2018-10-04T10:40:46.364Z,59.1
2018-10-04T10:41:47.941Z,58.7
2018-10-04T10:42:49.202Z,59.6
2018-10-04T10:43:50.614Z,58.7
2018-10-04T10:44:51.890Z,57.7
2018-10-04T10:45:53.287Z,58.2
2018-10-04T10:46:54.848Z,56.7
2018-10-04T10:47:56.260Z,56.7
2018-10-04T10:48:57.832Z,56.2
2018-10-04T10:49:59.403Z,55.7
2018-10-04T10:51:00.984Z,54.3
2018-10-04T10:52:02.587Z,54.7
2018-10-04T10:53:04.289Z,54.3
2018-10-04T10:54:05.915Z,53.3
2018-10-04T10:55:07.486Z,54.3
2018-10-04T10:56:08.896Z,53.3
2018-10-04T10:57:10.469Z,53.8
2018-10-04T10:58:12.035Z,52.8
2018-10-04T10:59:13.655Z,53.3
2018-10-04T11:00:15.232Z,52.8
2018-10-04T11:01:17.604Z,52.8
2018-10-04T11:02:19.088Z,52.3
2018-10-04T11:03:20.669Z,52.8
2018-10-04T11:04:22.081Z,52.3
2018-10-04T11:05:23.662Z,51.8
2018-10-04T11:06:25.046Z,51.8
2018-10-04T11:07:26.447Z,52.3
2018-10-04T11:08:28.232Z,51.3
2018-10-04T11:09:29.943Z,51.3
2018-10-04T11:10:31.196Z,51.8
2018-10-04T11:11:33.337Z,51.3
2018-10-04T11:12:35.013Z,51.3
2018-10-04T11:13:36.567Z,50.8
2018-10-04T11:14:38.121Z,49.4
2018-10-04T11:15:39.686Z,49.4
2018-10-04T11:16:41.096Z,47.9
2018-10-04T11:17:42.897Z,46.9
2018-10-04T11:18:44.422Z,46.4
2018-10-04T11:19:45.986Z,46.4
2018-10-04T11:20:47.396Z,46.4
2018-10-04T11:22:03.656Z,45.5
2018-10-04T11:23:04.950Z,45.9
2018-10-04T11:24:06.609Z,46.4
2018-10-04T11:25:08.195Z,46.4
2018-10-04T11:26:09.593Z,46.4
2018-10-04T11:27:11.167Z,46.9
2018-10-04T11:28:12.594Z,45.9
2018-10-04T11:29:14.434Z,46.4
2018-10-04T11:30:15.755Z,46.9
2018-10-04T11:31:17.150Z,46.9
2018-10-04T11:32:18.722Z,45.9
2018-10-04T11:33:20.344Z,46.4
2018-10-04T11:34:21.928Z,45.9
2018-10-04T11:35:23.386Z,45.5
2018-10-04T11:36:24.798Z,45
2018-10-04T11:37:26.378Z,45
2018-10-04T11:38:27.963Z,45
2018-10-04T11:39:30.229Z,44.5
2018-10-04T11:40:31.893Z,44.5
2018-10-04T11:41:33.469Z,44.5
2018-10-04T11:42:35.068Z,44.5
2018-10-04T11:43:36.667Z,44.5
2018-10-04T11:44:38.229Z,44.5
2018-10-04T11:45:39.778Z,44
2018-10-04T11:46:41.356Z,45
2018-10-04T11:47:42.992Z,45.5
2018-10-04T11:48:44.548Z,44
2018-10-04T11:49:45.945Z,45.5
2018-10-04T11:50:47.521Z,45
2018-10-04T11:51:48.923Z,45.5
2018-10-04T11:52:50.319Z,45.5
2018-10-04T11:53:51.719Z,45
2018-10-04T11:54:53.286Z,45
2018-10-04T11:55:54.882Z,45
2018-10-04T11:56:56.453Z,44
2018-10-04T11:57:58.015Z,44.5
2018-10-04T11:58:59.594Z,45.5
2018-10-04T12:00:01.150Z,45
2018-10-04T12:01:02.768Z,45.9
2018-10-04T12:02:04.363Z,45.5
2018-10-04T12:03:05.778Z,45.5
2018-10-04T12:04:07.341Z,46.4
2018-10-04T12:05:08.806Z,45.9
2018-10-04T12:06:10.408Z,44.5
2018-10-04T12:07:12.456Z,44
2018-10-04T12:08:14.215Z,45
2018-10-04T12:09:15.795Z,44.5
2018-10-04T12:10:17.352Z,44
2018-10-04T12:11:18.929Z,44
2018-10-04T12:12:20.652Z,44
2018-10-04T12:13:22.709Z,44
2018-10-04T12:14:24.397Z,43
2018-10-04T12:15:25.948Z,43
2018-10-04T12:16:27.514Z,42.5
2018-10-04T12:17:29.083Z,43
2018-10-04T12:18:30.977Z,42
2018-10-04T12:19:32.628Z,42.5
2018-10-04T12:20:34.207Z,42
2018-10-04T12:21:35.782Z,41.1
2018-10-04T12:22:37.032Z,42
2018-10-04T12:23:38.603Z,45
2018-10-04T12:24:40.199Z,51.3
2018-10-04T12:25:41.820Z,53.8
2018-10-04T12:26:43.391Z,56.2
2018-10-04T12:27:44.969Z,56.7
2018-10-04T12:28:46.540Z,57.7
2018-10-04T12:29:48.146Z,59.1
2018-10-04T12:30:50.453Z,59.1
2018-10-04T12:31:52.039Z,58.7
2018-10-04T12:32:53.438Z,58.7
2018-10-04T12:33:55.004Z,59.1
2018-10-04T12:34:56.591Z,58.7
2018-10-04T12:35:58.279Z,58.7
2018-10-04T12:36:59.881Z,59.1
2018-10-04T12:38:01.287Z,58.2
2018-10-04T12:39:02.691Z,59.1
2018-10-04T12:40:04.261Z,58.7
2018-10-04T12:41:05.854Z,58.2
2018-10-04T12:42:07.227Z,57.7
2018-10-04T12:43:08.798Z,58.7
2018-10-04T12:44:10.754Z,57.7
2018-10-04T12:45:12.479Z,56.2
2018-10-04T12:46:14.052Z,55.7
2018-10-04T12:47:15.618Z,54.7
2018-10-04T12:48:17.225Z,54.7
2018-10-04T12:49:18.783Z,54.7
2018-10-04T12:50:20.353Z,54.7
2018-10-04T12:51:21.905Z,54.3
2018-10-04T12:52:23.483Z,53.3
2018-10-04T12:53:25.119Z,53.3
2018-10-04T12:54:27.225Z,52.8
2018-10-04T12:55:28.724Z,53.8
2018-10-04T12:56:30.107Z,53.3
2018-10-04T12:57:31.700Z,52.8
2018-10-04T12:58:33.092Z,53.3
2018-10-04T12:59:34.543Z,52.8
2018-10-04T13:00:36.112Z,51.8
2018-10-04T13:01:37.659Z,52.3
2018-10-04T13:02:39.208Z,50.8
2018-10-04T13:03:40.771Z,50.8
2018-10-04T13:04:42.336Z,50.8
2018-10-04T13:05:43.905Z,51.3
2018-10-04T13:06:46.444Z,51.3
2018-10-04T13:07:48.081Z,50.8
2018-10-04T13:08:49.656Z,51.3
2018-10-04T13:09:51.081Z,50.3
2018-10-04T13:10:52.630Z,50.3
2018-10-04T13:11:54.267Z,50.3
2018-10-04T13:12:55.823Z,49.9
2018-10-04T13:13:57.278Z,48.9
2018-10-04T13:14:58.873Z,49.4
2018-10-04T13:16:00.428Z,48.9
2018-10-04T13:17:02.011Z,47.4
2018-10-04T13:18:03.557Z,47.9
2018-10-04T13:19:05.125Z,47.9
2018-10-04T13:20:07.136Z,46.4
2018-10-04T13:21:10.350Z,45
2018-10-04T13:22:12.354Z,45.5
2018-10-04T13:23:13.929Z,45.5
2018-10-04T13:24:15.511Z,45.5
2018-10-04T13:25:17.078Z,45.5
2018-10-04T13:26:18.659Z,45.5
2018-10-04T13:27:20.225Z,45
2018-10-04T13:28:21.791Z,45.5
2018-10-04T13:29:23.361Z,45.9
2018-10-04T13:30:24.608Z,45.5
2018-10-04T13:31:26.033Z,45.5
2018-10-04T13:32:27.591Z,45.9
2018-10-04T13:33:29.074Z,45.9
2018-10-04T13:34:30.796Z,46.4
2018-10-04T13:35:32.032Z,46.4
2018-10-04T13:36:33.594Z,45.9
2018-10-04T13:37:35.195Z,45.9
2018-10-04T13:38:36.767Z,46.4
2018-10-04T13:39:38.021Z,46.4
2018-10-04T13:40:39.862Z,45.5
2018-10-04T13:41:41.444Z,45
2018-10-04T13:42:42.996Z,44.5
2018-10-04T13:43:44.401Z,43.5
2018-10-04T13:44:45.994Z,43
2018-10-04T13:45:47.461Z,41.1
2018-10-04T13:46:48.873Z,41.1